createdAt,value
2017-08-30T08:39:55.361Z,65.34
2017-08-30T08:41:02.829Z,61.90
2017-08-30T08:42:09.887Z,60.29
2017-08-30T08:43:17.865Z,60.66
2017-08-30T08:44:25.873Z,59.88
2017-08-30T08:45:36.908Z,58.69
2017-08-30T08:46:45.966Z,60.38
2017-08-30T08:47:54.469Z,60.79
2017-08-30T08:49:05.191Z,59.94
2017-08-30T08:50:12.881Z,61.08
2017-08-30T08:51:22.139Z,59.03
2017-08-30T08:52:30.247Z,59.08
2017-08-30T08:53:39.099Z,60.50
2017-08-30T08:54:47.049Z,59.13
2017-08-30T08:55:56.194Z,56.30
2017-08-30T08:57:05.005Z,57.42
2017-08-30T08:58:16.089Z,57.53
2017-08-30T08:59:27.101Z,58.33
2017-08-30T09:00:36.090Z,58.88
2017-08-30T09:01:44.837Z,58.34
2017-08-30T09:02:54.879Z,57.84
2017-08-30T09:04:04.928Z,57.00
2017-08-30T09:05:14.928Z,56.54
2017-08-30T09:06:23.126Z,56.91
2017-08-30T09:07:32.894Z,55.89
2017-08-30T09:08:44.149Z,54.67
2017-08-30T09:09:52.879Z,53.51
2017-08-30T09:11:00.129Z,56.35
2017-08-30T09:12:07.903Z,56.41
2017-08-30T09:13:19.236Z,56.85
2017-08-30T09:14:28.867Z,53.80
2017-08-30T09:15:36.867Z,55.99
2017-08-30T09:16:44.792Z,53.48
2017-08-30T09:17:52.581Z,52.24
2017-08-30T09:18:59.835Z,54.39
2017-08-30T09:20:07.028Z,54.52
2017-08-30T09:21:16.329Z,55.03
2017-08-30T09:22:24.869Z,53.65
2017-08-30T09:23:33.843Z,52.88
2017-08-30T09:24:41.864Z,52.33
2017-08-30T09:25:50.117Z,51.90
2017-08-30T09:26:58.176Z,51.63
2017-08-30T09:28:04.929Z,55.09
2017-08-30T09:29:12.325Z,51.89
2017-08-30T09:30:22.039Z,52.54
2017-08-30T09:31:32.783Z,54.03
2017-08-30T09:32:39.790Z,54.08
2017-08-30T09:33:47.806Z,54.61
2017-08-30T09:34:55.770Z,53.76
2017-08-30T09:36:05.020Z,53.03
2017-08-30T09:37:13.865Z,53.74
2017-08-30T09:38:21.817Z,53.21
2017-08-30T09:39:29.835Z,54.40
2017-08-30T09:40:37.921Z,49.92
2017-08-30T09:41:46.611Z,51.97
2017-08-30T09:42:55.007Z,49.41
2017-08-30T09:44:03.031Z,52.40
2017-08-30T09:45:11.025Z,53.32
2017-08-30T09:46:18.790Z,52.25
2017-08-30T09:47:28.921Z,51.35
2017-08-30T09:48:36.916Z,48.77
2017-08-30T09:49:44.807Z,49.91
2017-08-30T09:50:53.775Z,49.18
2017-08-30T09:52:03.078Z,49.98
2017-08-30T09:53:11.270Z,49.60
2017-08-30T09:54:20.028Z,48.57
2017-08-30T09:55:29.043Z,50.15
2017-08-30T09:56:40.104Z,51.71
2017-08-30T09:57:48.798Z,49.25
2017-08-30T09:59:25.916Z,49.81
2017-08-30T10:00:36.856Z,46.44
2017-08-30T10:01:44.693Z,47.94
2017-08-30T10:02:53.877Z,48.29
2017-08-30T10:04:02.816Z,48.86
2017-08-30T10:05:12.875Z,48.53
2017-08-30T10:06:23.979Z,45.88
2017-08-30T10:07:33.948Z,45.97
2017-08-30T10:08:44.835Z,47.50
2017-08-30T10:09:54.966Z,46.54
2017-08-30T10:11:04.892Z,44.78
2017-08-30T10:12:15.942Z,45.89
2017-08-30T10:13:25.843Z,44.67
2017-08-30T10:14:36.856Z,43.67
2017-08-30T10:15:45.195Z,42.36
2017-08-30T10:16:53.822Z,43.50
2017-08-30T10:18:04.813Z,42.99
2017-08-30T10:19:14.114Z,43.18
2017-08-30T10:20:21.743Z,42.61
2017-08-30T10:21:29.086Z,44.03
2017-08-30T10:22:34.851Z,41.90
2017-08-30T10:23:40.637Z,42.94
2017-08-30T10:24:47.345Z,42.58
2017-08-30T10:25:53.701Z,41.83
2017-08-30T10:26:59.465Z,41.03
2017-08-30T10:28:05.887Z,40.76
2017-08-30T10:29:11.687Z,43.78
2017-08-30T10:30:17.526Z,42.38
2017-08-30T10:31:23.925Z,44.03
2017-08-30T10:32:29.603Z,42.14
2017-08-30T10:33:35.750Z,41.26
2017-08-30T10:34:41.511Z,42.47
2017-08-30T10:35:47.437Z,42.91
2017-08-30T10:36:53.285Z,41.28
2017-08-30T10:37:59.033Z,42.95
2017-08-30T10:39:04.687Z,41.92
2017-08-30T10:40:10.608Z,39.85
2017-08-30T10:41:16.390Z,40.77
2017-08-30T10:42:22.364Z,41.50
2017-08-30T10:43:28.137Z,41.35
2017-08-30T10:44:34.764Z,41.67
2017-08-30T10:45:41.177Z,41.65
2017-08-30T10:46:47.095Z,40.32
2017-08-30T10:47:53.634Z,43.20
2017-08-30T10:48:59.443Z,41.42
2017-08-30T10:50:05.219Z,39.92
2017-08-30T10:51:11.055Z,40.98
2017-08-30T10:52:16.989Z,40.03
2017-08-30T10:53:22.559Z,40.85
2017-08-30T10:54:29.340Z,39.58
2017-08-30T10:55:35.205Z,39.49
2017-08-30T10:56:40.976Z,39.80
2017-08-30T10:57:46.807Z,39.58
2017-08-30T10:58:52.769Z,39.70
2017-08-30T10:59:59.292Z,40.52
2017-08-30T11:01:05.028Z,42.03
2017-08-30T11:02:14.461Z,39.91
2017-08-30T11:03:20.065Z,39.67
2017-08-30T11:04:25.835Z,38.23
2017-08-30T11:05:31.596Z,43.01
2017-08-30T11:06:37.365Z,41.60
2017-08-30T11:07:43.139Z,40.85
2017-08-30T11:08:48.881Z,40.79
2017-08-30T11:09:54.641Z,39.66
2017-08-30T11:11:01.078Z,39.61
2017-08-30T11:12:06.867Z,36.57
2017-08-30T11:13:13.864Z,39.58
2017-08-30T11:14:19.732Z,39.29
2017-08-30T11:15:25.511Z,38.68
2017-08-30T11:16:31.301Z,38.29
2017-08-30T11:17:37.067Z,38.35
2017-08-30T11:18:43.516Z,38.71
2017-08-30T11:19:49.877Z,38.01
2017-08-30T11:20:56.369Z,37.03
2017-08-30T11:22:02.180Z,38.28
2017-08-30T11:23:07.823Z,39.04
2017-08-30T11:24:14.242Z,38.96
2017-08-30T11:25:20.862Z,37.60
2017-08-30T11:26:26.878Z,38.71
2017-08-30T11:27:32.792Z,37.21
2017-08-30T11:28:38.432Z,37.68
2017-08-30T11:29:44.344Z,38.25
2017-08-30T11:30:50.091Z,38.58
2017-08-30T11:31:55.936Z,40.69
2017-08-30T11:33:02.391Z,39.08
2017-08-30T11:34:08.807Z,41.97
2017-08-30T11:35:15.302Z,41.63
2017-08-30T11:36:21.541Z,41.56
2017-08-30T11:37:28.069Z,43.54
2017-08-30T11:38:33.861Z,42.55
2017-08-30T11:39:40.136Z,41.82
2017-08-30T11:40:46.021Z,40.58
2017-08-30T11:41:52.792Z,41.73
2017-08-30T11:42:58.738Z,42.89
2017-08-30T11:44:04.882Z,41.40
2017-08-30T11:45:10.681Z,41.88
2017-08-30T11:46:16.447Z,43.21
2017-08-30T11:47:22.415Z,42.49
2017-08-30T11:48:28.228Z,43.49
2017-08-30T11:49:34.096Z,44.62
2017-08-30T11:50:39.879Z,43.03
2017-08-30T11:51:46.365Z,43.49
2017-08-30T11:52:51.785Z,45.24
2017-08-30T11:53:57.520Z,44.74
2017-08-30T11:55:03.268Z,42.70
2017-08-30T11:56:09.844Z,41.29
2017-08-30T11:57:15.709Z,44.51
2017-08-30T11:58:21.491Z,43.53
2017-08-30T11:59:27.560Z,42.90
2017-08-30T12:00:33.894Z,42.34
2017-08-30T12:01:39.673Z,40.98
2017-08-30T12:02:45.429Z,42.62
2017-08-30T12:03:51.084Z,42.48
2017-08-30T12:04:57.860Z,42.70
2017-08-30T12:06:03.630Z,43.55
2017-08-30T12:07:09.537Z,41.90
2017-08-30T12:08:15.397Z,42.37
2017-08-30T12:09:21.167Z,42.26
2017-08-30T12:10:27.551Z,44.34
2017-08-30T12:11:33.457Z,44.89
2017-08-30T12:12:39.793Z,42.14
2017-08-30T12:13:46.331Z,44.15
2017-08-30T12:14:52.929Z,44.64
2017-08-30T12:15:59.449Z,44.33
2017-08-30T12:17:05.244Z,46.05
2017-08-30T12:18:10.864Z,44.04
2017-08-30T12:19:16.724Z,43.97
2017-08-30T12:20:23.147Z,42.42
2017-08-30T12:21:29.693Z,42.46
2017-08-30T12:22:36.112Z,44.47
2017-08-30T12:23:41.856Z,46.29
2017-08-30T12:24:47.717Z,43.56
2017-08-30T12:25:54.229Z,43.53
2017-08-30T12:27:00.552Z,43.99
2017-08-30T12:28:06.378Z,44.99
2017-08-30T12:29:12.253Z,44.22
2017-08-30T12:30:18.059Z,41.22
2017-08-30T12:31:23.644Z,42.41
2017-08-30T12:32:30.139Z,43.38
2017-08-30T12:33:35.679Z,43.15
2017-08-30T12:34:41.464Z,41.79
2017-08-30T12:35:47.216Z,42.26
2017-08-30T12:36:58.780Z,41.19
2017-08-30T12:38:10.194Z,40.61
2017-08-30T12:39:21.456Z,40.27
2017-08-30T12:40:27.031Z,39.54
2017-08-30T12:41:34.138Z,40.96
2017-08-30T12:42:40.180Z,42.85
2017-08-30T12:43:46.047Z,42.26
2017-08-30T12:44:51.792Z,41.60
2017-08-30T12:45:57.669Z,40.78
2017-08-30T12:47:04.197Z,39.44
2017-08-30T12:48:09.977Z,43.94
2017-08-30T12:49:15.749Z,43.48
2017-08-30T12:50:21.764Z,43.15
2017-08-30T12:51:27.632Z,42.55
2017-08-30T12:52:33.435Z,42.39
2017-08-30T12:53:39.613Z,40.06
2017-08-30T12:54:45.562Z,40.25
2017-08-30T12:55:51.402Z,40.39
2017-08-30T12:56:57.908Z,40.82
2017-08-30T12:58:04.374Z,38.88
2017-08-30T12:59:10.239Z,38.16
2017-08-30T13:00:16.606Z,38.63
2017-08-30T13:01:23.170Z,39.98
2017-08-30T13:02:28.927Z,38.38
2017-08-30T13:03:35.487Z,39.39
2017-08-30T13:04:41.336Z,38.49
2017-08-30T13:05:47.108Z,38.39
2017-08-30T13:06:54.092Z,39.28
2017-08-30T13:08:00.508Z,39.13
2017-08-30T13:09:06.870Z,38.60
2017-08-30T13:10:13.206Z,37.14
2017-08-30T13:11:18.721Z,37.56
2017-08-30T13:12:25.185Z,40.50
2017-08-30T13:13:30.920Z,40.21
2017-08-30T13:14:36.844Z,38.55
2017-08-30T13:15:43.334Z,39.69
2017-08-30T13:16:49.268Z,40.51
2017-08-30T13:17:55.070Z,39.75
2017-08-30T13:19:00.884Z,40.05
2017-08-30T13:20:07.281Z,40.41
2017-08-30T13:21:13.847Z,42.25
2017-08-30T13:22:19.635Z,39.59
2017-08-30T13:23:25.419Z,40.18
2017-08-30T13:24:31.259Z,39.23
2017-08-30T13:25:37.024Z,39.17
2017-08-30T13:26:42.906Z,37.82
2017-08-30T13:27:49.483Z,37.83
2017-08-30T13:28:55.222Z,38.07
2017-08-30T13:30:01.065Z,38.67
2017-08-30T13:31:06.873Z,39.64
2017-08-30T13:32:12.793Z,38.58
2017-08-30T13:33:19.445Z,36.60
2017-08-30T13:34:25.205Z,37.58
2017-08-30T13:35:31.532Z,37.67
2017-08-30T13:36:37.198Z,36.62
2017-08-30T13:37:43.027Z,36.52
2017-08-30T13:38:49.171Z,38.40
2017-08-30T13:39:55.066Z,37.99
2017-08-30T13:41:00.841Z,39.23
2017-08-30T13:42:06.609Z,41.02
2017-08-30T13:43:13.247Z,39.74
2017-08-30T13:44:20.472Z,39.49
2017-08-30T13:45:27.178Z,37.60
2017-08-30T13:46:33.709Z,37.63
2017-08-30T13:47:39.559Z,39.43
2017-08-30T13:48:45.374Z,36.49
2017-08-30T13:49:51.112Z,35.98
2017-08-30T13:50:56.943Z,36.25
2017-08-30T13:52:03.433Z,35.86
2017-08-30T13:53:10.056Z,35.02
2017-08-30T13:54:15.824Z,35.26
2017-08-30T13:55:21.625Z,38.93
2017-08-30T13:56:27.421Z,35.67
2017-08-30T13:57:33.307Z,34.62
2017-08-30T13:58:39.148Z,36.95
2017-08-30T13:59:44.722Z,38.04
2017-08-30T14:00:50.557Z,38.20
2017-08-30T14:01:56.910Z,33.60
2017-08-30T14:03:02.689Z,35.02
2017-08-30T14:04:09.336Z,34.67
2017-08-30T14:05:15.941Z,37.67
2017-08-30T14:06:21.793Z,36.40
2017-08-30T14:07:27.956Z,36.84
2017-08-30T14:08:33.731Z,35.94
2017-08-30T14:09:39.536Z,36.92
2017-08-30T14:10:45.284Z,36.27
2017-08-30T14:11:51.083Z,34.74
2017-08-30T14:12:56.935Z,35.57
2017-08-30T14:14:02.684Z,34.65
2017-08-30T14:15:08.491Z,36.56
2017-08-30T14:16:16.005Z,36.41
2017-08-30T14:17:24.055Z,36.69
2017-08-30T14:18:31.910Z,36.85
2017-08-30T14:19:38.335Z,38.05
2017-08-30T14:20:44.211Z,36.11
2017-08-30T14:21:53.956Z,37.49
2017-08-30T14:22:59.716Z,35.96
2017-08-30T14:24:05.688Z,36.68
2017-08-30T14:27:06.723Z,35.34
2017-08-30T14:28:13.525Z,35.92
2017-08-30T14:29:22.827Z,37.58
2017-08-30T14:30:28.884Z,36.24
2017-08-30T14:31:35.307Z,35.54
2017-08-30T14:32:41.093Z,36.93
2017-08-30T14:33:47.518Z,36.10
2017-08-30T14:34:53.514Z,34.04
2017-08-30T14:36:01.121Z,35.47
2017-08-30T14:37:06.877Z,33.48
2017-08-30T14:38:13.329Z,35.81
2017-08-30T14:39:19.501Z,36.17
2017-08-30T14:40:26.579Z,34.40
2017-08-30T14:41:32.506Z,36.17
2017-08-30T14:42:38.324Z,36.14
2017-08-30T14:43:44.174Z,35.37
2017-08-30T14:44:50.899Z,36.23
2017-08-30T14:45:57.395Z,35.52
2017-08-30T14:47:03.595Z,35.09
2017-08-30T14:48:09.306Z,36.21
2017-08-30T14:49:15.706Z,37.09
2017-08-30T14:50:21.560Z,35.14
2017-08-30T14:51:28.078Z,34.72
2017-08-30T14:52:34.688Z,37.10
2017-08-30T14:53:41.140Z,36.67
2017-08-30T14:54:47.540Z,34.03
2017-08-30T14:55:53.917Z,35.10
2017-08-30T14:56:59.763Z,35.02
2017-08-30T14:58:05.577Z,36.00
2017-08-30T14:59:11.181Z,34.62
2017-08-30T15:00:16.927Z,34.83
2017-08-30T15:01:23.558Z,34.76
2017-08-30T15:02:29.320Z,35.20
2017-08-30T15:03:35.170Z,35.70
2017-08-30T15:04:40.986Z,36.08
2017-08-30T15:05:46.820Z,37.50
2017-08-30T15:06:52.690Z,37.03
2017-08-30T15:07:58.592Z,35.21
2017-08-30T15:09:03.475Z,37.18
2017-08-30T15:10:09.329Z,38.77
2017-08-30T15:11:16.377Z,36.07
2017-08-30T15:12:22.171Z,38.62
2017-08-30T15:13:28.262Z,36.49
2017-08-30T15:14:34.058Z,36.29
2017-08-30T15:15:39.844Z,36.17
2017-08-30T15:16:45.723Z,36.10
2017-08-30T15:17:51.665Z,38.81
2017-08-30T15:18:57.609Z,37.10
2017-08-30T15:20:03.675Z,37.40
2017-08-30T15:21:09.428Z,38.62
2017-08-30T15:22:15.225Z,36.63
2017-08-30T15:23:21.074Z,36.76
2017-08-30T15:24:27.637Z,36.83
2017-08-30T15:25:33.527Z,36.93
2017-08-30T15:26:39.290Z,35.66
2017-08-30T15:27:45.044Z,35.01
2017-08-30T15:28:54.069Z,35.59
2017-08-30T15:30:00.603Z,37.76
2017-08-30T15:31:06.406Z,36.63
2017-08-30T15:32:13.825Z,35.66
2017-08-30T15:33:20.181Z,35.33
2017-08-30T15:34:26.522Z,38.43
2017-08-30T15:35:32.275Z,34.67
2017-08-30T15:36:38.536Z,35.00
2017-08-30T15:37:44.651Z,36.64
2017-08-30T15:38:52.587Z,34.81
2017-08-30T15:39:59.344Z,36.12
2017-08-30T15:41:06.385Z,37.47
2017-08-30T15:42:12.646Z,37.26
2017-08-30T15:43:18.422Z,37.31
2017-08-30T15:44:25.801Z,38.62
2017-08-30T15:45:34.439Z,41.68
2017-08-30T15:46:42.535Z,39.78
2017-08-30T15:47:48.714Z,40.57
2017-08-30T15:48:55.229Z,39.33
2017-08-30T15:50:02.293Z,39.55
2017-08-30T15:51:08.851Z,39.68
2017-08-30T15:52:15.846Z,38.36
2017-08-30T15:53:22.450Z,37.89
2017-08-30T15:54:29.861Z,47.48
2017-08-30T15:55:36.204Z,39.07
2017-08-30T15:56:42.050Z,41.76
2017-08-30T15:57:49.437Z,40.47
2017-08-30T15:58:56.700Z,38.33
2017-08-30T16:00:04.827Z,41.65
2017-08-30T16:01:13.403Z,39.02
2017-08-30T16:02:21.647Z,37.79
2017-08-30T16:03:30.090Z,37.82
2017-08-30T16:04:36.831Z,38.28
2017-08-30T16:05:46.208Z,37.48
2017-08-30T16:06:54.420Z,36.56
2017-08-30T16:08:02.324Z,39.56
2017-08-30T16:09:12.515Z,37.57
2017-08-30T16:10:21.042Z,36.21
2017-08-30T16:11:28.680Z,37.43
2017-08-30T16:12:36.265Z,39.78
2017-08-30T16:13:45.185Z,38.66
2017-08-30T16:14:52.351Z,41.14
2017-08-30T16:16:00.882Z,45.70
2017-08-30T16:17:08.865Z,41.00
2017-08-30T16:18:18.019Z,44.78
2017-08-30T16:19:27.234Z,40.79
2017-08-30T16:20:33.237Z,42.25
2017-08-30T16:21:39.948Z,41.46
2017-08-30T16:22:47.511Z,42.27
2017-08-30T16:23:53.311Z,41.46
2017-08-30T16:24:59.729Z,40.32
2017-08-30T16:26:06.336Z,42.68
2017-08-30T16:27:14.211Z,41.57
2017-08-30T16:28:21.858Z,40.89
2017-08-30T16:29:30.181Z,39.88
2017-08-30T16:30:38.112Z,39.75
2017-08-30T16:31:45.885Z,43.63
2017-08-30T16:32:52.266Z,40.75
2017-08-30T16:33:58.800Z,40.09
2017-08-30T16:35:04.787Z,41.63
2017-08-30T16:36:11.431Z,42.35
2017-08-30T16:37:17.214Z,42.95
2017-08-30T16:38:23.445Z,43.38
2017-08-30T16:39:30.161Z,43.67
2017-08-30T16:40:36.469Z,44.94
2017-08-30T16:41:42.963Z,44.63
2017-08-30T16:42:48.722Z,45.71
2017-08-30T16:43:54.528Z,45.88
2017-08-30T16:45:01.296Z,46.37
2017-08-30T16:46:10.319Z,46.74
2017-08-30T16:47:18.472Z,46.94
2017-08-30T16:48:27.416Z,49.05
2017-08-30T16:49:35.092Z,46.71
2017-08-30T16:50:42.011Z,46.18
2017-08-30T16:51:49.865Z,46.96
2017-08-30T16:52:59.871Z,46.98
2017-08-30T16:54:08.005Z,46.64
2017-08-30T16:55:16.118Z,46.84
2017-08-30T16:56:22.323Z,45.33
2017-08-30T16:57:28.088Z,46.83
2017-08-30T16:58:37.447Z,46.24
2017-08-30T16:59:45.384Z,47.13
2017-08-30T17:00:54.314Z,45.78
2017-08-30T17:02:01.809Z,46.72
2017-08-30T17:03:07.580Z,47.08
2017-08-30T17:04:13.336Z,47.14
2017-08-30T17:05:19.133Z,47.16
2017-08-30T17:06:24.755Z,46.42
2017-08-30T17:07:30.546Z,47.93
2017-08-30T17:08:36.351Z,47.87
2017-08-30T17:09:42.110Z,47.91
2017-08-30T17:10:47.754Z,48.68
2017-08-30T17:11:54.243Z,48.80
2017-08-30T17:12:59.899Z,49.02
2017-08-30T17:14:06.101Z,48.79
2017-08-30T17:15:12.818Z,51.61
2017-08-30T17:16:19.328Z,49.10
2017-08-30T17:17:25.121Z,49.59
2017-08-30T17:18:30.926Z,50.77
2017-08-30T17:19:37.560Z,50.71
2017-08-30T17:20:43.396Z,50.83
2017-08-30T17:21:49.176Z,50.76
2017-08-30T17:22:55.181Z,50.99
2017-08-30T17:24:01.062Z,52.20
2017-08-30T17:25:06.828Z,51.75
2017-08-30T17:26:12.300Z,53.22
2017-08-30T17:27:18.676Z,53.44
2017-08-30T17:28:25.244Z,54.16
2017-08-30T17:29:31.221Z,54.23
2017-08-30T17:30:37.818Z,54.19
2017-08-30T17:31:43.642Z,54.74
2017-08-30T17:32:49.457Z,55.05
2017-08-30T17:33:57.853Z,55.08
2017-08-30T17:35:04.697Z,55.88
2017-08-30T17:36:10.938Z,56.58
2017-08-30T17:37:16.784Z,57.60
2017-08-30T17:38:22.857Z,58.18
2017-08-30T17:39:28.688Z,58.67
2017-08-30T17:40:36.930Z,59.52
2017-08-30T17:41:46.521Z,59.32
2017-08-30T17:42:53.335Z,60.86
2017-08-30T17:44:00.683Z,59.77
2017-08-30T17:45:06.566Z,60.15
2017-08-30T17:46:12.693Z,60.58
2017-08-30T17:47:19.915Z,60.33
2017-08-30T17:48:25.499Z,61.11
2017-08-30T17:49:33.095Z,61.08
2017-08-30T17:50:38.876Z,62.39
2017-08-30T17:51:44.700Z,62.21
2017-08-30T17:52:53.083Z,62.11
2017-08-30T17:53:59.474Z,63.27
2017-08-30T17:55:06.556Z,62.16
2017-08-30T17:56:12.547Z,62.96
2017-08-30T17:57:20.172Z,62.82
2017-08-30T17:58:28.496Z,63.68
2017-08-30T17:59:34.234Z,65.27
2017-08-30T18:00:40.306Z,64.59
2017-08-30T18:01:46.675Z,64.83
2017-08-30T18:02:52.460Z,65.41
2017-08-30T18:03:59.227Z,66.23
2017-08-30T18:05:05.605Z,66.05
2017-08-30T18:06:11.675Z,66.23
2017-08-30T18:07:17.437Z,66.48
2017-08-30T18:08:23.568Z,66.56
2017-08-30T18:09:30.196Z,66.45
2017-08-30T18:10:37.452Z,68.18
2017-08-30T18:11:43.260Z,68.22
2017-08-30T18:12:49.330Z,68.31
2017-08-30T18:13:55.932Z,67.95
2017-08-30T18:15:02.089Z,67.74
2017-08-30T18:16:08.123Z,68.28
2017-08-30T18:17:14.009Z,67.75
2017-08-30T18:18:19.917Z,67.93
2017-08-30T18:19:25.481Z,68.54
2017-08-30T18:20:31.647Z,68.11
2017-08-30T18:21:38.279Z,68.50
2017-08-30T18:22:44.311Z,68.38
2017-08-30T18:23:50.373Z,69.63
2017-08-30T18:24:56.622Z,70.08
2017-08-30T18:26:02.771Z,69.76
2017-08-30T18:27:08.629Z,69.82
2017-08-30T18:28:14.689Z,70.10
2017-08-30T18:29:20.313Z,69.87
2017-08-30T18:30:26.445Z,70.51
2017-08-30T18:31:32.553Z,69.76
2017-08-30T18:32:39.372Z,70.61
2017-08-30T18:33:45.403Z,70.83
2017-08-30T18:34:52.136Z,70.66
2017-08-30T18:35:57.739Z,71.40
2017-08-30T18:37:03.861Z,71.88
2017-08-30T18:38:10.270Z,71.52
2017-08-30T18:39:16.305Z,71.37
2017-08-30T18:40:22.398Z,71.64
2017-08-30T18:41:28.453Z,71.72
2017-08-30T18:42:34.542Z,71.91
2017-08-30T18:43:40.703Z,71.81
2017-08-30T18:44:46.964Z,71.96
2017-08-30T18:45:53.056Z,72.43
2017-08-30T18:47:00.293Z,73.25
2017-08-30T18:48:06.400Z,73.11
2017-08-30T18:49:12.824Z,72.58
2017-08-30T18:50:19.963Z,72.92
2017-08-30T18:51:26.009Z,73.25
2017-08-30T18:52:32.188Z,73.11
2017-08-30T18:53:38.283Z,74.81
2017-08-30T18:54:44.876Z,74.45
2017-08-30T18:55:50.730Z,74.37
2017-08-30T18:56:56.900Z,74.08
2017-08-30T18:58:03.725Z,74.04
2017-08-30T18:59:09.863Z,74.19
2017-08-30T19:00:16.581Z,73.27
2017-08-30T19:01:22.481Z,72.50
2017-08-30T19:02:28.326Z,73.45
2017-08-30T19:03:34.353Z,73.38
2017-08-30T19:04:40.408Z,73.27
2017-08-30T19:05:47.709Z,73.82
2017-08-30T19:06:54.631Z,73.90
2017-08-30T19:08:00.959Z,73.71
2017-08-30T19:09:08.316Z,74.37
2017-08-30T19:10:14.237Z,73.73
2017-08-30T19:11:20.404Z,74.84
2017-08-30T19:12:27.152Z,74.36
2017-08-30T19:13:33.196Z,73.26
2017-08-30T19:14:40.022Z,74.64
2017-08-30T19:15:47.793Z,74.01
2017-08-30T19:16:53.820Z,73.84
2017-08-30T19:18:00.010Z,74.31
2017-08-30T19:19:06.240Z,74.08
2017-08-30T19:20:12.377Z,74.45
2017-08-30T19:21:18.277Z,74.81
2017-08-30T19:22:24.847Z,74.04
2017-08-30T19:23:30.803Z,72.48
2017-08-30T19:24:36.676Z,73.05
2017-08-30T19:25:43.492Z,74.25
2017-08-30T19:26:50.340Z,74.16
2017-08-30T19:27:57.224Z,74.96
2017-08-30T19:29:03.580Z,74.84
2017-08-30T19:30:09.611Z,74.76
2017-08-30T19:31:16.441Z,75.20
2017-08-30T19:32:22.584Z,74.84
2017-08-30T19:33:28.721Z,75.51
2017-08-30T19:34:34.775Z,74.32
2017-08-30T19:35:40.858Z,74.58
2017-08-30T19:36:47.009Z,74.72
2017-08-30T19:37:53.076Z,74.10
2017-08-30T19:38:59.425Z,73.47
2017-08-30T19:40:06.467Z,73.75
2017-08-30T19:41:12.593Z,74.51
2017-08-30T19:42:18.596Z,73.38
2017-08-30T19:43:24.465Z,73.09
2017-08-30T19:44:31.221Z,74.39
2017-08-30T19:45:37.912Z,74.45
2017-08-30T19:46:44.577Z,74.50
2017-08-30T19:47:50.607Z,74.36
2017-08-30T19:48:57.558Z,74.46
2017-08-30T19:50:03.625Z,74.59
2017-08-30T19:51:09.711Z,75.49
2017-08-30T19:52:16.364Z,75.55
2017-08-30T19:53:22.711Z,75.24
2017-08-30T19:54:28.813Z,75.39
2017-08-30T19:55:34.917Z,75.09
2017-08-30T19:56:40.771Z,75.66
2017-08-30T19:57:46.907Z,75.38
2017-08-30T19:58:53.567Z,74.97
2017-08-30T19:59:59.742Z,75.28
2017-08-30T20:01:06.564Z,76.76
2017-08-30T20:02:13.454Z,76.09
2017-08-30T20:03:19.561Z,76.40
2017-08-30T20:04:25.598Z,76.79
2017-08-30T20:05:31.643Z,76.11
2017-08-30T20:06:38.728Z,75.61
2017-08-30T20:07:44.831Z,75.31
2017-08-30T20:08:50.992Z,75.56
2017-08-30T20:09:57.861Z,74.38
2017-08-30T20:11:03.993Z,75.61
2017-08-30T20:12:10.635Z,75.78
2017-08-30T20:13:16.736Z,75.81
2017-08-30T20:14:22.790Z,75.95
2017-08-30T20:15:28.844Z,76.39
2017-08-30T20:16:35.460Z,75.12
2017-08-30T20:17:41.661Z,75.68
2017-08-30T20:18:48.501Z,75.99
2017-08-30T20:19:54.996Z,76.01
2017-08-30T20:21:00.865Z,75.66
2017-08-30T20:22:06.958Z,76.56
2017-08-30T20:23:13.007Z,76.31
2017-08-30T20:24:19.063Z,76.16
2017-08-30T20:25:25.152Z,76.79
2017-08-30T20:26:31.193Z,75.67
2017-08-30T20:27:37.263Z,76.12
2017-08-30T20:28:43.382Z,75.88
2017-08-30T20:29:49.478Z,75.27
2017-08-30T20:30:55.884Z,75.63
2017-08-30T20:32:01.940Z,75.49
2017-08-30T20:33:08.760Z,75.95
2017-08-30T20:34:14.857Z,76.72
2017-08-30T20:35:21.590Z,76.41
2017-08-30T20:36:27.643Z,76.41
2017-08-30T20:37:33.607Z,76.72
2017-08-30T20:38:40.408Z,76.63
2017-08-30T20:39:47.028Z,76.64
2017-08-30T20:40:53.663Z,76.67
2017-08-30T20:41:59.823Z,77.06
2017-08-30T20:43:06.595Z,77.13
2017-08-30T20:44:12.635Z,77.22
2017-08-30T20:45:19.437Z,77.17
2017-08-30T20:46:26.013Z,77.42
2017-08-30T20:47:32.838Z,77.28
2017-08-30T20:48:38.960Z,77.96
2017-08-30T20:49:45.026Z,77.95
2017-08-30T20:50:51.173Z,78.43
2017-08-30T20:51:57.428Z,77.96
2017-08-30T20:53:03.568Z,79.05
2017-08-30T20:54:09.632Z,78.78
2017-08-30T20:55:15.672Z,80.13
2017-08-30T20:56:21.842Z,79.50
2017-08-30T20:57:27.912Z,79.12
2017-08-30T20:58:34.014Z,79.44
2017-08-30T20:59:40.917Z,79.27
2017-08-30T21:00:47.552Z,78.86
2017-08-30T21:01:54.087Z,78.87
2017-08-30T21:02:59.973Z,79.39
2017-08-30T21:04:06.110Z,79.38
2017-08-30T21:05:11.972Z,80.14
2017-08-30T21:06:18.126Z,80.01
2017-08-30T21:07:24.148Z,80.34
2017-08-30T21:08:31.190Z,80.79
2017-08-30T21:09:37.367Z,80.98
2017-08-30T21:10:43.545Z,80.50
2017-08-30T21:11:51.454Z,81.05
2017-08-30T21:12:57.589Z,81.21
2017-08-30T21:14:04.409Z,80.89
2017-08-30T21:15:10.599Z,80.68
2017-08-30T21:16:17.216Z,80.73
2017-08-30T21:17:24.090Z,81.13
2017-08-30T21:18:30.217Z,79.88
2017-08-30T21:19:37.127Z,80.38
2017-08-30T21:20:42.997Z,80.38
2017-08-30T21:21:49.923Z,79.32
2017-08-30T21:22:56.100Z,79.58
2017-08-30T21:24:02.159Z,79.76
2017-08-30T21:25:08.438Z,79.34
2017-08-30T21:26:15.095Z,78.54
2017-08-30T21:27:21.162Z,78.30
2017-08-30T21:28:28.027Z,78.51
2017-08-30T21:29:34.115Z,79.31
2017-08-30T21:30:40.796Z,79.64
2017-08-30T21:31:47.625Z,79.18
2017-08-30T21:32:55.089Z,78.59
2017-08-30T21:34:01.847Z,78.61
2017-08-30T21:35:07.919Z,78.19
2017-08-30T21:36:14.029Z,78.99
2017-08-30T21:37:20.093Z,79.68
2017-08-30T21:38:26.209Z,78.45
2017-08-30T21:39:33.115Z,78.97
2017-08-30T21:40:39.219Z,79.09
2017-08-30T21:41:45.341Z,78.05
2017-08-30T21:42:51.430Z,76.87
2017-08-30T21:43:57.618Z,76.74
2017-08-30T21:45:04.825Z,76.59
2017-08-30T21:46:12.296Z,75.24
2017-08-30T21:47:18.480Z,74.90
2017-08-30T21:48:24.605Z,74.39
2017-08-30T21:49:30.783Z,73.97
2017-08-30T21:50:36.929Z,74.53
2017-08-30T21:51:42.981Z,73.55
2017-08-30T21:52:49.048Z,73.32
2017-08-30T21:53:55.109Z,73.02
2017-08-30T21:55:02.221Z,73.27
2017-08-30T21:56:08.363Z,74.78
2017-08-30T21:57:14.412Z,74.04
2017-08-30T21:58:20.584Z,75.10
2017-08-30T21:59:26.677Z,75.08
2017-08-30T22:00:32.710Z,75.55
2017-08-30T22:01:38.806Z,74.96
2017-08-30T22:02:44.852Z,75.14
2017-08-30T22:03:50.898Z,76.83
2017-08-30T22:04:57.604Z,76.02
2017-08-30T22:06:03.325Z,76.80
2017-08-30T22:07:09.596Z,77.84
2017-08-30T22:08:15.797Z,77.34
2017-08-30T22:09:21.865Z,76.96
2017-08-30T22:10:27.939Z,77.36
2017-08-30T22:11:34.111Z,76.89
2017-08-30T22:12:40.172Z,77.55
2017-08-30T22:13:47.184Z,76.64
2017-08-30T22:14:53.120Z,76.91
2017-08-30T22:15:59.052Z,77.11
2017-08-30T22:17:05.138Z,77.92
2017-08-30T22:18:11.273Z,78.01
2017-08-30T22:19:17.908Z,78.53
2017-08-30T22:20:24.121Z,78.12
2017-08-30T22:21:30.848Z,78.41
2017-08-30T22:22:36.962Z,78.55
2017-08-30T22:23:42.836Z,79.88
2017-08-30T22:24:49.028Z,78.97
2017-08-30T22:25:55.133Z,78.88
2017-08-30T22:27:01.246Z,78.02
2017-08-30T22:28:07.366Z,77.79
2017-08-30T22:29:13.476Z,77.99
2017-08-30T22:30:19.548Z,78.14
2017-08-30T22:31:25.449Z,77.49
2017-08-30T22:32:31.504Z,78.31
2017-08-30T22:33:38.418Z,78.86
2017-08-30T22:34:44.581Z,77.66
2017-08-30T22:35:50.688Z,76.84
2017-08-30T22:36:58.595Z,78.65
2017-08-30T22:38:05.560Z,78.16
2017-08-30T22:39:12.545Z,77.96
2017-08-30T22:40:18.620Z,78.47
2017-08-30T22:41:24.703Z,77.81
2017-08-30T22:42:30.909Z,79.62
2017-08-30T22:43:38.339Z,78.99
2017-08-30T22:44:44.450Z,79.57
2017-08-30T22:45:50.584Z,80.15
2017-08-30T22:46:56.847Z,80.42
2017-08-30T22:48:03.931Z,80.13
2017-08-30T22:49:10.108Z,79.56
2017-08-30T22:50:16.179Z,78.93
2017-08-30T22:51:22.697Z,79.38
2017-08-30T22:52:28.690Z,79.73
2017-08-30T22:53:34.777Z,80.17
2017-08-30T22:54:40.960Z,80.22
2017-08-30T22:55:47.144Z,79.22
2017-08-30T22:56:53.254Z,79.22
2017-08-30T22:57:59.377Z,79.32
2017-08-30T22:59:06.094Z,79.81
2017-08-30T23:00:12.213Z,79.96